sensor_id;sensor_type;location;lat;lon;timestamp;pressure;altitude;pressure_sealevel;temperature;humidity
17635;BME280;8936;49.010;12.120;2023-04-29T00:01:57;97596.47;;;11.86;100.00
17635;BME280;8936;49.010;12.120;2023-04-29T00:04:24;97592.75;;;11.87;100.00
17635;BME280;8936;49.010;12.120;2023-04-29T00:06:50;97597.22;;;11.97;100.00
17635;BME280;8936;49.010;12.120;2023-04-29T00:09:18;97585.97;;;12.00;100.00
17635;BME280;8936;49.010;12.120;2023-04-29T00:11:44;97588.06;;;12.03;100.00
17635;BME280;8936;49.010;12.120;2023-04-29T00:14:12;97588.91;;;11.99;100.00
17635;BME280;8936;49.010;12.120;2023-04-29T00:16:38;97590.56;;;11.89;100.00
17635;BME280;8936;49.010;12.120;2023-04-29T00:19:04;97590.06;;;11.87;100.00
17635;BME280;8936;49.010;12.120;2023-04-29T00:21:31;97579.63;;;11.86;100.00
17635;BME280;8936;49.010;12.120;2023-04-29T00:23:57;97581.47;;;11.90;100.00
17635;BME280;8936;49.010;12.120;2023-04-29T00:26:25;97579.81;;;11.95;100.00
17635;BME280;8936;49.010;12.120;2023-04-29T00:28:52;97580.91;;;11.94;100.00
17635;BME280;8936;49.010;12.120;2023-04-29T00:31:18;97574.69;;;12.03;100.00
17635;BME280;8936;49.010;12.120;2023-04-29T00:33:45;97569.47;;;12.17;100.00
17635;BME280;8936;49.010;12.120;2023-04-29T00:36:12;97574.94;;;12.07;100.00
17635;BME280;8936;49.010;12.120;2023-04-29T00:38:38;97571.16;;;12.08;100.00
17635;BME280;8936;49.010;12.120;2023-04-29T00:41:04;97564.19;;;12.12;100.00
17635;BME280;8936;49.010;12.120;2023-04-29T00:43:32;97570.59;;;12.11;100.00
17635;BME280;8936;49.010;12.120;2023-04-29T00:45:58;97573.81;;;12.13;100.00
17635;BME280;8936;49.010;12.120;2023-04-29T00:48:25;97575.72;;;12.07;100.00
17635;BME280;8936;49.010;12.120;2023-04-29T00:50:51;97579.72;;;12.10;100.00
17635;BME280;8936;49.010;12.120;2023-04-29T00:53:18;97565.31;;;12.06;100.00
17635;BME280;8936;49.010;12.120;2023-04-29T00:55:45;97563.44;;;12.06;100.00
17635;BME280;8936;49.010;12.120;2023-04-29T00:58:11;97565.63;;;11.99;100.00
17635;BME280;8936;49.010;12.120;2023-04-29T01:00:39;97568.38;;;11.89;100.00
17635;BME280;8936;49.010;12.120;2023-04-29T01:03:08;97569.72;;;11.86;100.00
17635;BME280;8936;49.010;12.120;2023-04-29T01:05:34;97568.94;;;11.86;100.00
17635;BME280;8936;49.010;12.120;2023-04-29T01:08:03;97572.44;;;11.81;100.00
17635;BME280;8936;49.010;12.120;2023-04-29T01:10:34;97575.94;;;11.77;100.00
17635;BME280;8936;49.010;12.120;2023-04-29T01:13:04;97582.09;;;11.77;100.00
17635;BME280;8936;49.010;12.120;2023-04-29T01:15:32;97584.47;;;11.84;100.00
17635;BME280;8936;49.010;12.120;2023-04-29T01:18:03;97586.78;;;11.96;100.00
17635;BME280;8936;49.010;12.120;2023-04-29T01:20:30;97577.06;;;12.05;100.00
17635;BME280;8936;49.010;12.120;2023-04-29T01:22:57;97566.44;;;11.95;100.00
17635;BME280;8936;49.010;12.120;2023-04-29T01:25:25;97563.00;;;11.89;100.00
17635;BME280;8936;49.010;12.120;2023-04-29T01:27:54;97563.31;;;11.87;100.00
17635;BME280;8936;49.010;12.120;2023-04-29T01:30:25;97571.88;;;11.84;100.00
17635;BME280;8936;49.010;12.120;2023-04-29T01:33:00;97576.06;;;12.01;100.00
17635;BME280;8936;49.010;12.120;2023-04-29T01:35:32;97570.41;;;12.02;100.00
17635;BME280;8936;49.010;12.120;2023-04-29T01:38:04;97574.94;;;12.07;100.00
17635;BME280;8936;49.010;12.120;2023-04-29T01:40:38;97571.91;;;11.79;100.00
17635;BME280;8936;49.010;12.120;2023-04-29T01:43:08;97578.13;;;11.75;100.00
17635;BME280;8936;49.010;12.120;2023-04-29T01:45:37;97575.03;;;11.91;100.00
17635;BME280;8936;49.010;12.120;2023-04-29T01:48:05;97564.19;;;11.78;100.00
17635;BME280;8936;49.010;12.120;2023-04-29T01:50:31;97553.78;;;11.71;100.00
17635;BME280;8936;49.010;12.120;2023-04-29T01:52:58;97553.25;;;11.69;100.00
17635;BME280;8936;49.010;12.120;2023-04-29T01:55:24;97562.34;;;11.68;100.00
17635;BME280;8936;49.010;12.120;2023-04-29T01:57:52;97574.91;;;11.73;100.00
17635;BME280;8936;49.010;12.120;2023-04-29T02:00:18;97577.81;;;11.76;100.00
17635;BME280;8936;49.010;12.120;2023-04-29T02:02:45;97562.63;;;11.72;100.00
17635;BME280;8936;49.010;12.120;2023-04-29T02:05:11;97569.53;;;11.78;100.00
17635;BME280;8936;49.010;12.120;2023-04-29T02:07:37;97566.59;;;11.74;100.00
17635;BME280;8936;49.010;12.120;2023-04-29T02:10:04;97571.97;;;11.74;100.00
17635;BME280;8936;49.010;12.120;2023-04-29T02:12:31;97577.81;;;11.76;100.00
17635;BME280;8936;49.010;12.120;2023-04-29T02:14:58;97569.22;;;11.79;100.00
17635;BME280;8936;49.010;12.120;2023-04-29T02:17:25;97572.44;;;11.81;100.00
17635;BME280;8936;49.010;12.120;2023-04-29T02:19:51;97571.78;;;11.95;100.00
17635;BME280;8936;49.010;12.120;2023-04-29T02:22:19;97577.16;;;11.95;100.00
17635;BME280;8936;49.010;12.120;2023-04-29T02:24:45;97586.75;;;12.01;100.00
17635;BME280;8936;49.010;12.120;2023-04-29T02:27:11;97585.09;;;12.05;100.00
17635;BME280;8936;49.010;12.120;2023-04-29T02:29:38;97581.91;;;12.03;100.00
17635;BME280;8936;49.010;12.120;2023-04-29T02:32:06;97583.31;;;11.95;100.00
17635;BME280;8936;49.010;12.120;2023-04-29T02:34:32;97589.47;;;11.96;100.00
17635;BME280;8936;49.010;12.120;2023-04-29T02:36:58;97574.44;;;12.00;100.00
17635;BME280;8936;49.010;12.120;2023-04-29T02:39:25;97571.47;;;12.01;100.00
17635;BME280;8936;49.010;12.120;2023-04-29T02:41:52;97563.19;;;12.03;100.00
17635;BME280;8936;49.010;12.120;2023-04-29T02:44:19;97559.88;;;12.16;100.00
17635;BME280;8936;49.010;12.120;2023-04-29T02:46:45;97551.59;;;12.12;100.00
17635;BME280;8936;49.010;12.120;2023-04-29T02:49:13;97549.19;;;12.11;100.00
17635;BME280;8936;49.010;12.120;2023-04-29T02:51:39;97569.59;;;12.07;100.00
17635;BME280;8936;49.010;12.120;2023-04-29T02:54:06;97567.34;;;12.14;100.00
17635;BME280;8936;49.010;12.120;2023-04-29T02:56:32;97572.22;;;12.12;100.00
17635;BME280;8936;49.010;12.120;2023-04-29T02:58:59;97564.19;;;12.12;100.00
17635;BME280;8936;49.010;12.120;2023-04-29T03:01:25;97572.72;;;12.14;100.00
17635;BME280;8936;49.010;12.120;2023-04-29T03:03:51;97564.69;;;12.14;100.00
17635;BME280;8936;49.010;12.120;2023-04-29T03:06:20;97564.78;;;12.04;100.00
17635;BME280;8936;49.010;12.120;2023-04-29T03:08:46;97565.88;;;11.98;100.00
17635;BME280;8936;49.010;12.120;2023-04-29T03:11:12;97564.81;;;11.99;100.00
17635;BME280;8936;49.010;12.120;2023-04-29T03:13:38;97562.63;;;12.06;100.00
17635;BME280;8936;49.010;12.120;2023-04-29T03:16:05;97567.47;;;12.04;100.00
17635;BME280;8936;49.010;12.120;2023-04-29T03:18:32;97553.91;;;11.90;100.00
17635;BME280;8936;49.010;12.120;2023-04-29T03:20:58;97567.81;;;11.92;100.00
17635;BME280;8936;49.010;12.120;2023-04-29T03:23:26;97569.13;;;11.95;100.00
17635;BME280;8936;49.010;12.120;2023-04-29T03:25:52;97568.34;;;11.94;100.00
17635;BME280;8936;49.010;12.120;2023-04-29T03:28:19;97570.22;;;11.94;100.00
17635;BME280;8936;49.010;12.120;2023-04-29T03:30:46;97561.91;;;11.95;100.00
17635;BME280;8936;49.010;12.120;2023-04-29T03:33:12;97562.75;;;11.90;100.00
17635;BME280;8936;49.010;12.120;2023-04-29T03:35:38;97558.47;;;11.89;100.00
17635;BME280;8936;49.010;12.120;2023-04-29T03:38:05;97565.38;;;11.96;100.00
17635;BME280;8936;49.010;12.120;2023-04-29T03:40:33;97556.53;;;11.95;100.00
17635;BME280;8936;49.010;12.120;2023-04-29T03:42:59;97553.78;;;12.05;100.00
17635;BME280;8936;49.010;12.120;2023-04-29T03:45:25;97554.84;;;12.09;100.00
17635;BME280;8936;49.010;12.120;2023-04-29T03:47:52;97548.94;;;12.07;100.00
17635;BME280;8936;49.010;12.120;2023-04-29T03:50:18;97543.75;;;12.21;100.00
17635;BME280;8936;49.010;12.120;2023-04-29T03:52:45;97547.72;;;12.23;100.00
17635;BME280;8936;49.010;12.120;2023-04-29T03:55:11;97547.03;;;12.13;100.00
17635;BME280;8936;49.010;12.120;2023-04-29T03:57:39;97553.97;;;12.14;100.00
17635;BME280;8936;49.010;12.120;2023-04-29T04:00:06;97563.44;;;12.06;100.00
17635;BME280;8936;49.010;12.120;2023-04-29T04:02:33;97568.25;;;12.04;100.00
17635;BME280;8936;49.010;12.120;2023-04-29T04:05:00;97569.78;;;12.10;100.00
17635;BME280;8936;49.010;12.120;2023-04-29T04:07:26;97563.56;;;12.20;100.00
17635;BME280;8936;49.010;12.120;2023-04-29T04:09:52;97566.22;;;12.25;100.00
17635;BME280;8936;49.010;12.120;2023-04-29T04:12:19;97561.34;;;12.27;100.00
17635;BME280;8936;49.010;12.120;2023-04-29T04:14:47;97572.56;;;12.29;100.00
17635;BME280;8936;49.010;12.120;2023-04-29T04:17:13;97569.91;;;12.29;100.00
17635;BME280;8936;49.010;12.120;2023-04-29T04:19:39;97569.22;;;12.18;100.00
17635;BME280;8936;49.010;12.120;2023-04-29T04:22:06;97584.72;;;12.21;100.00
17635;BME280;8936;49.010;12.120;2023-04-29T04:24:32;97587.09;;;12.23;100.00
17635;BME280;8936;49.010;12.120;2023-04-29T04:26:58;97576.44;;;12.18;100.00
17635;BME280;8936;49.010;12.120;2023-04-29T04:29:25;97575.13;;;12.15;100.00
17635;BME280;8936;49.010;12.120;2023-04-29T04:31:53;97574.50;;;12.23;100.00
17635;BME280;8936;49.010;12.120;2023-04-29T04:34:20;97569.97;;;12.24;100.00
17635;BME280;8936;49.010;12.120;2023-04-29T04:36:46;97580.97;;;12.22;100.00
17635;BME280;8936;49.010;12.120;2023-04-29T04:39:12;97582.03;;;12.21;100.00
17635;BME280;8936;49.010;12.120;2023-04-29T04:41:39;97580.75;;;12.14;100.00
17635;BME280;8936;49.010;12.120;2023-04-29T04:44:05;97586.03;;;12.24;100.00
17635;BME280;8936;49.010;12.120;2023-04-29T04:46:31;97576.34;;;12.28;100.00
17635;BME280;8936;49.010;12.120;2023-04-29T04:48:59;97576.28;;;12.33;100.00
17635;BME280;8936;49.010;12.120;2023-04-29T04:51:26;97577.34;;;12.37;100.00
17635;BME280;8936;49.010;12.120;2023-04-29T04:53:53;97577.19;;;12.52;100.00
17635;BME280;8936;49.010;12.120;2023-04-29T04:56:19;97583.03;;;12.59;100.00
17635;BME280;8936;49.010;12.120;2023-04-29T04:58:46;97580.84;;;12.32;100.00
17635;BME280;8936;49.010;12.120;2023-04-29T05:01:12;97579.59;;;12.25;100.00
17635;BME280;8936;49.010;12.120;2023-04-29T05:03:38;97577.25;;;12.47;100.00
17635;BME280;8936;49.010;12.120;2023-04-29T05:06:06;97581.41;;;12.58;100.00
17635;BME280;8936;49.010;12.120;2023-04-29T05:08:32;97578.22;;;12.56;100.00
17635;BME280;8936;49.010;12.120;2023-04-29T05:10:59;97582.44;;;12.62;100.00
17635;BME280;8936;49.010;12.120;2023-04-29T05:13:25;97590.16;;;12.40;100.00
17635;BME280;8936;49.010;12.120;2023-04-29T05:15:52;97596.34;;;12.35;100.00
17635;BME280;8936;49.010;12.120;2023-04-29T05:18:18;97580.84;;;12.61;100.00
17635;BME280;8936;49.010;12.120;2023-04-29T05:20:44;97579.94;;;12.71;100.00
17635;BME280;8936;49.010;12.120;2023-04-29T05:23:12;97584.50;;;12.70;100.00
17635;BME280;8936;49.010;12.120;2023-04-29T05:25:39;97593.50;;;12.56;100.00
17635;BME280;8936;49.010;12.120;2023-04-29T05:28:06;97597.00;;;12.51;100.00
17635;BME280;8936;49.010;12.120;2023-04-29T05:30:32;97589.22;;;12.55;100.00
17635;BME280;8936;49.010;12.120;2023-04-29T05:32:58;97593.84;;;12.44;100.00
17635;BME280;8936;49.010;12.120;2023-04-29T05:35:25;97596.53;;;12.44;100.00
17635;BME280;8936;49.010;12.120;2023-04-29T05:37:51;97593.16;;;12.62;100.00
17635;BME280;8936;49.010;12.120;2023-04-29T05:40:19;97596.50;;;12.78;100.00
17635;BME280;8936;49.010;12.120;2023-04-29T05:42:47;97607.22;;;12.78;100.00
17635;BME280;8936;49.010;12.120;2023-04-29T05:45:13;97609.13;;;12.72;100.00
17635;BME280;8936;49.010;12.120;2023-04-29T05:47:40;97607.88;;;12.65;100.00
17635;BME280;8936;49.010;12.120;2023-04-29T05:50:06;97606.34;;;12.54;100.00
17635;BME280;8936;49.010;12.120;2023-04-29T05:52:33;97608.34;;;12.72;100.00
17635;BME280;8936;49.010;12.120;2023-04-29T05:54:59;97619.16;;;12.85;100.00
17635;BME280;8936;49.010;12.120;2023-04-29T05:57:27;97622.72;;;12.81;100.00
17635;BME280;8936;49.010;12.120;2023-04-29T05:59:53;97618.69;;;12.78;100.00
17635;BME280;8936;49.010;12.120;2023-04-29T06:02:20;97626.69;;;12.83;100.00
17635;BME280;8936;49.010;12.120;2023-04-29T06:04:46;97629.97;;;13.04;100.00
17635;BME280;8936;49.010;12.120;2023-04-29T06:07:12;97635.03;;;13.06;100.00
17635;BME280;8936;49.010;12.120;2023-04-29T06:09:39;97631.59;;;13.00;100.00
17635;BME280;8936;49.010;12.120;2023-04-29T06:12:06;97633.78;;;12.98;100.00
17635;BME280;8936;49.010;12.120;2023-04-29T06:14:34;97638.78;;;12.81;100.00
17635;BME280;8936;49.010;12.120;2023-04-29T06:17:00;97643.13;;;12.77;100.00
17635;BME280;8936;49.010;12.120;2023-04-29T06:19:27;97643.22;;;12.67;100.00
17635;BME280;8936;49.010;12.120;2023-04-29T06:21:54;97647.81;;;12.61;100.00
17635;BME280;8936;49.010;12.120;2023-04-29T06:24:21;97647.88;;;12.56;100.00
17635;BME280;8936;49.010;12.120;2023-04-29T06:26:47;97647.16;;;12.74;100.00
17635;BME280;8936;49.010;12.120;2023-04-29T06:29:13;97657.34;;;12.72;100.00
17635;BME280;8936;49.010;12.120;2023-04-29T06:31:41;97652.22;;;12.76;100.00
17635;BME280;8936;49.010;12.120;2023-04-29T06:34:08;97655.94;;;12.80;100.00
17635;BME280;8936;49.010;12.120;2023-04-29T06:36:34;97655.84;;;12.90;100.00
17635;BME280;8936;49.010;12.120;2023-04-29T06:39:01;97657.72;;;12.89;100.00
17635;BME280;8936;49.010;12.120;2023-04-29T06:41:27;97660.44;;;12.84;100.00
17635;BME280;8936;49.010;12.120;2023-04-29T06:43:53;97661.25;;;12.85;100.00
17635;BME280;8936;49.010;12.120;2023-04-29T06:46:20;97664.97;;;13.18;100.00
17635;BME280;8936;49.010;12.120;2023-04-29T06:48:47;97666.38;;;13.34;100.00
17635;BME280;8936;49.010;12.120;2023-04-29T06:51:14;97659.16;;;13.53;100.00
17635;BME280;8936;49.010;12.120;2023-04-29T06:53:40;97659.25;;;13.67;100.00
17635;BME280;8936;49.010;12.120;2023-04-29T06:56:06;97657.75;;;13.13;100.00
17635;BME280;8936;49.010;12.120;2023-04-29T06:58:33;97665.53;;;13.15;100.00
17635;BME280;8936;49.010;12.120;2023-04-29T07:00:59;97660.03;;;13.48;100.00
17635;BME280;8936;49.010;12.120;2023-04-29T07:03:27;97659.53;;;13.23;100.00
17635;BME280;8936;49.010;12.120;2023-04-29T07:05:55;97663.81;;;13.24;100.00
17635;BME280;8936;49.010;12.120;2023-04-29T07:08:21;97677.13;;;13.52;100.00
17635;BME280;8936;49.010;12.120;2023-04-29T07:10:52;97681.00;;;13.65;100.00
17635;BME280;8936;49.010;12.120;2023-04-29T07:13:19;97684.03;;;14.01;100.00
17635;BME280;8936;49.010;12.120;2023-04-29T07:15:45;97673.69;;;14.08;100.00
17635;BME280;8936;49.010;12.120;2023-04-29T07:18:11;97674.69;;;14.36;100.00
17635;BME280;8936;49.010;12.120;2023-04-29T07:20:38;97669.13;;;14.46;100.00
17635;BME280;8936;49.010;12.120;2023-04-29T07:23:05;97675.31;;;14.46;100.00
17635;BME280;8936;49.010;12.120;2023-04-29T07:25:32;97668.13;;;14.42;100.00
17635;BME280;8936;49.010;12.120;2023-04-29T07:27:59;97670.63;;;14.52;100.00
17635;BME280;8936;49.010;12.120;2023-04-29T07:30:25;97673.59;;;14.69;100.00
17635;BME280;8936;49.010;12.120;2023-04-29T07:32:51;97675.03;;;14.94;100.00
17635;BME280;8936;49.010;12.120;2023-04-29T07:35:18;97673.53;;;14.88;100.00
17635;BME280;8936;49.010;12.120;2023-04-29T07:37:45;97679.41;;;14.90;100.00
17635;BME280;8936;49.010;12.120;2023-04-29T07:40:13;97671.81;;;14.46;100.00
17635;BME280;8936;49.010;12.120;2023-04-29T07:42:40;97679.19;;;14.73;100.00
17635;BME280;8936;49.010;12.120;2023-04-29T07:45:06;97680.41;;;14.94;100.00
17635;BME280;8936;49.010;12.120;2023-04-29T07:47:33;97680.69;;;14.79;100.00
17635;BME280;8936;49.010;12.120;2023-04-29T07:49:59;97683.22;;;14.70;100.00
17635;BME280;8936;49.010;12.120;2023-04-29T07:52:25;97683.38;;;14.92;100.00
17635;BME280;8936;49.010;12.120;2023-04-29T07:54:52;97685.00;;;14.93;100.00
17635;BME280;8936;49.010;12.120;2023-04-29T07:57:21;97682.22;;;15.12;100.00
17635;BME280;8936;49.010;12.120;2023-04-29T07:59:49;97682.13;;;15.03;100.00
17635;BME280;8936;49.010;12.120;2023-04-29T08:02:16;97678.47;;;15.13;100.00
17635;BME280;8936;49.010;12.120;2023-04-29T08:04:42;97673.91;;;14.81;100.00
17635;BME280;8936;49.010;12.120;2023-04-29T08:07:09;97686.63;;;15.22;100.00
17635;BME280;8936;49.010;12.120;2023-04-29T08:09:35;97687.22;;;15.32;100.00
17635;BME280;8936;49.010;12.120;2023-04-29T08:12:01;97684.25;;;15.61;100.00
17635;BME280;8936;49.010;12.120;2023-04-29T08:14:29;97679.13;;;15.32;100.00
17635;BME280;8936;49.010;12.120;2023-04-29T08:16:56;97674.28;;;15.61;100.00
17635;BME280;8936;49.010;12.120;2023-04-29T08:19:22;97684.44;;;15.24;100.00
17635;BME280;8936;49.010;12.120;2023-04-29T08:21:48;97687.31;;;15.27;100.00
17635;BME280;8936;49.010;12.120;2023-04-29T08:24:16;97686.34;;;15.37;100.00
17635;BME280;8936;49.010;12.120;2023-04-29T08:26:42;97681.75;;;15.37;100.00
17635;BME280;8936;49.010;12.120;2023-04-29T08:29:08;97688.91;;;15.42;100.00
17635;BME280;8936;49.010;12.120;2023-04-29T08:31:36;97689.34;;;15.49;100.00
17635;BME280;8936;49.010;12.120;2023-04-29T08:34:02;97682.66;;;15.60;100.00
17635;BME280;8936;49.010;12.120;2023-04-29T08:36:29;97680.34;;;15.67;100.00
17635;BME280;8936;49.010;12.120;2023-04-29T08:38:55;97678.97;;;15.70;100.00
17635;BME280;8936;49.010;12.120;2023-04-29T08:41:21;97683.84;;;15.68;100.00
17635;BME280;8936;49.010;12.120;2023-04-29T08:43:49;97673.09;;;15.54;100.00
17635;BME280;8936;49.010;12.120;2023-04-29T08:46:15;97685.25;;;15.51;100.00
17635;BME280;8936;49.010;12.120;2023-04-29T08:48:43;97693.22;;;15.43;100.00
17635;BME280;8936;49.010;12.120;2023-04-29T08:51:10;97689.03;;;15.64;100.00
17635;BME280;8936;49.010;12.120;2023-04-29T08:53:36;97692.97;;;15.94;100.00
17635;BME280;8936;49.010;12.120;2023-04-29T08:56:07;97695.16;;;16.05;100.00
17635;BME280;8936;49.010;12.120;2023-04-29T08:58:35;97686.63;;;15.76;100.00
17635;BME280;8936;49.010;12.120;2023-04-29T09:01:01;97690.84;;;15.55;100.00
17635;BME280;8936;49.010;12.120;2023-04-29T09:03:29;97684.84;;;15.72;100.00
17635;BME280;8936;49.010;12.120;2023-04-29T09:05:58;97688.19;;;15.23;100.00
17635;BME280;8936;49.010;12.120;2023-04-29T09:08:25;97680.34;;;15.67;100.00
17635;BME280;8936;49.010;12.120;2023-04-29T09:10:52;97694.03;;;15.71;100.00
17635;BME280;8936;49.010;12.120;2023-04-29T09:13:22;97690.81;;;15.82;100.00
17635;BME280;8936;49.010;12.120;2023-04-29T09:15:48;97692.44;;;15.56;100.00
17635;BME280;8936;49.010;12.120;2023-04-29T09:20:56;97686.81;;;15.39;100.00
17635;BME280;8936;49.010;12.120;2023-04-29T09:23:23;97687.72;;;15.07;100.00
17635;BME280;8936;49.010;12.120;2023-04-29T09:26:01;97691.22;;;15.35;100.00
17635;BME280;8936;49.010;12.120;2023-04-29T09:28:28;97690.66;;;15.65;100.00
17635;BME280;8936;49.010;12.120;2023-04-29T09:30:54;97689.00;;;15.91;100.00
17635;BME280;8936;49.010;12.120;2023-04-29T09:33:21;97688.91;;;16.18;100.00
17635;BME280;8936;49.010;12.120;2023-04-29T09:35:47;97685.06;;;16.11;100.00
17635;BME280;8936;49.010;12.120;2023-04-29T09:38:14;97684.13;;;15.80;100.00
17635;BME280;8936;49.010;12.120;2023-04-29T09:40:42;97689.53;;;16.15;100.00
17635;BME280;8936;49.010;12.120;2023-04-29T09:43:12;97690.44;;;16.25;100.00
17635;BME280;8936;49.010;12.120;2023-04-29T09:45:40;97695.56;;;16.35;100.00
17635;BME280;8936;49.010;12.120;2023-04-29T09:48:07;97694.66;;;16.39;100.00
17635;BME280;8936;49.010;12.120;2023-04-29T09:50:33;97690.56;;;16.42;100.00
17635;BME280;8936;49.010;12.120;2023-04-29T09:53:01;97696.22;;;16.40;100.00
17635;BME280;8936;49.010;12.120;2023-04-29T09:55:28;97693.00;;;16.52;100.00
17635;BME280;8936;49.010;12.120;2023-04-29T09:57:57;97694.66;;;16.39;100.00
17635;BME280;8936;49.010;12.120;2023-04-29T10:00:24;97693.53;;;16.40;100.00
17635;BME280;8936;49.010;12.120;2023-04-29T10:02:53;97696.50;;;16.52;100.00
17635;BME280;8936;49.010;12.120;2023-04-29T10:05:21;97695.78;;;16.60;100.00
17635;BME280;8936;49.010;12.120;2023-04-29T10:07:48;97700.19;;;16.56;100.00
17635;BME280;8936;49.010;12.120;2023-04-29T10:10:15;97699.13;;;16.44;100.00
17635;BME280;8936;49.010;12.120;2023-04-29T10:12:42;97702.19;;;16.51;100.00
17635;BME280;8936;49.010;12.120;2023-04-29T10:15:11;97703.13;;;16.10;100.00
17635;BME280;8936;49.010;12.120;2023-04-29T10:17:40;97702.44;;;16.41;100.00
17635;BME280;8936;49.010;12.120;2023-04-29T10:20:08;97704.25;;;16.32;100.00
17635;BME280;8936;49.010;12.120;2023-04-29T10:22:39;97716.00;;;16.13;100.00
17635;BME280;8936;49.010;12.120;2023-04-29T10:25:08;97708.28;;;16.20;100.00
17635;BME280;8936;49.010;12.120;2023-04-29T10:27:35;97705.53;;;16.34;100.00
17635;BME280;8936;49.010;12.120;2023-04-29T10:30:02;97704.41;;;16.49;100.00
17635;BME280;8936;49.010;12.120;2023-04-29T10:32:30;97707.81;;;16.41;100.00
17635;BME280;8936;49.010;12.120;2023-04-29T10:34:57;97712.97;;;16.51;100.00
17635;BME280;8936;49.010;12.120;2023-04-29T10:37:24;97710.94;;;16.34;100.00
17635;BME280;8936;49.010;12.120;2023-04-29T10:39:51;97718.84;;;16.31;100.00
17635;BME280;8936;49.010;12.120;2023-04-29T10:42:25;97720.22;;;16.28;100.00
17635;BME280;8936;49.010;12.120;2023-04-29T10:47:42;97723.66;;;16.20;100.00
17635;BME280;8936;49.010;12.120;2023-04-29T10:50:30;97720.41;;;16.32;100.00
17635;BME280;8936;49.010;12.120;2023-04-29T10:52:57;97715.13;;;16.04;100.00
17635;BME280;8936;49.010;12.120;2023-04-29T10:55:26;97720.34;;;15.87;100.00
17635;BME280;8936;49.010;12.120;2023-04-29T10:57:53;97711.69;;;16.12;100.00
17635;BME280;8936;49.010;12.120;2023-04-29T11:00:21;97718.22;;;15.98;100.00
17635;BME280;8936;49.010;12.120;2023-04-29T11:56:13;97714.63;;;16.74;100.00
17635;BME280;8936;49.010;12.120;2023-04-29T11:58:40;97722.06;;;16.99;100.00
17635;BME280;8936;49.010;12.120;2023-04-29T12:01:07;97707.50;;;17.09;100.00
17635;BME280;8936;49.010;12.120;2023-04-29T12:03:33;97720.09;;;17.13;100.00
17635;BME280;8936;49.010;12.120;2023-04-29T12:06:00;97720.88;;;17.14;100.00
17635;BME280;8936;49.010;12.120;2023-04-29T12:08:27;97714.56;;;16.96;100.00
17635;BME280;8936;49.010;12.120;2023-04-29T12:10:54;97725.44;;;17.05;100.00
17635;BME280;8936;49.010;12.120;2023-04-29T12:13:23;97721.53;;;17.19;100.00
17635;BME280;8936;49.010;12.120;2023-04-29T12:15:50;97726.69;;;16.99;100.00
17635;BME280;8936;49.010;12.120;2023-04-29T12:18:17;97739.41;;;16.85;100.00
17635;BME280;8936;49.010;12.120;2023-04-29T12:20:45;97740.88;;;16.91;100.00
17635;BME280;8936;49.010;12.120;2023-04-29T12:23:12;97748.06;;;16.73;100.00
17635;BME280;8936;49.010;12.120;2023-04-29T12:25:39;97738.38;;;16.72;100.00
17635;BME280;8936;49.010;12.120;2023-04-29T12:28:10;97728.34;;;16.86;100.00
17635;BME280;8936;49.010;12.120;2023-04-29T12:30:38;97738.13;;;16.60;100.00
17635;BME280;8936;49.010;12.120;2023-04-29T12:33:04;97747.41;;;16.67;100.00
17635;BME280;8936;49.010;12.120;2023-04-29T12:35:33;97740.53;;;16.48;100.00
17635;BME280;8936;49.010;12.120;2023-04-29T12:37:59;97735.81;;;16.67;100.00
17635;BME280;8936;49.010;12.120;2023-04-29T12:40:26;97734.66;;;16.46;100.00
17635;BME280;8936;49.010;12.120;2023-04-29T12:42:53;97746.34;;;16.55;100.00
17635;BME280;8936;49.010;12.120;2023-04-29T12:45:26;97742.53;;;16.56;100.00
17635;BME280;8936;49.010;12.120;2023-04-29T12:47:55;97743.22;;;16.48;100.00
17635;BME280;8936;49.010;12.120;2023-04-29T12:50:26;97744.63;;;16.59;100.00
17635;BME280;8936;49.010;12.120;2023-04-29T12:52:53;97746.59;;;16.53;100.00
17635;BME280;8936;49.010;12.120;2023-04-29T12:55:20;97741.94;;;16.81;100.00
17635;BME280;8936;49.010;12.120;2023-04-29T12:57:46;97730.91;;;16.91;100.00
17635;BME280;8936;49.010;12.120;2023-04-29T13:00:13;97732.97;;;17.16;100.00
17635;BME280;8936;49.010;12.120;2023-04-29T13:02:39;97727.59;;;17.25;100.00
17635;BME280;8936;49.010;12.120;2023-04-29T13:05:07;97738.56;;;16.98;100.00
17635;BME280;8936;49.010;12.120;2023-04-29T13:07:34;97736.59;;;16.90;100.00
17635;BME280;8936;49.010;12.120;2023-04-29T13:10:00;97722.59;;;17.10;100.00
17635;BME280;8936;49.010;12.120;2023-04-29T13:12:27;97733.75;;;17.17;100.00
17635;BME280;8936;49.010;12.120;2023-04-29T13:14:53;97730.06;;;17.13;100.00
17635;BME280;8936;49.010;12.120;2023-04-29T13:17:20;97724.94;;;17.03;100.00
17635;BME280;8936;49.010;12.120;2023-04-29T13:19:46;97732.38;;;16.75;100.00
17635;BME280;8936;49.010;12.120;2023-04-29T13:22:14;97726.34;;;17.00;100.00
17635;BME280;8936;49.010;12.120;2023-04-29T13:24:40;97728.66;;;17.15;100.00
17635;BME280;8936;49.010;12.120;2023-04-29T13:27:07;97729.41;;;17.07;100.00
17635;BME280;8936;49.010;12.120;2023-04-29T13:29:34;97727.34;;;17.04;100.00
17635;BME280;8936;49.010;12.120;2023-04-29T13:32:00;97734.88;;;16.71;100.00
17635;BME280;8936;49.010;12.120;2023-04-29T13:34:26;97726.56;;;17.12;100.00
17635;BME280;8936;49.010;12.120;2023-04-29T13:36:53;97721.28;;;16.77;100.00
17635;BME280;8936;49.010;12.120;2023-04-29T13:39:20;97729.06;;;16.78;100.00
17635;BME280;8936;49.010;12.120;2023-04-29T13:41:47;97725.03;;;16.89;100.00
17635;BME280;8936;49.010;12.120;2023-04-29T13:44:14;97714.50;;;17.10;100.00
17635;BME280;8936;49.010;12.120;2023-04-29T13:46:40;97720.09;;;17.13;100.00
17635;BME280;8936;49.010;12.120;2023-04-29T13:49:06;97723.19;;;16.76;100.00